Portada
METAR-TAF:

METAR-TAF

Aeropuertos :

Aeropuerto de Aviñón-Provenza

Aviñón, Francia

latitud: 43-54-26N, longitud: 004-54-07E, altitud: 38 m

Observación

El informe se hizo hace 20 minutos, a las 01:30 UTC
Viento 1 kt con dirección variable
Temperatura 10°C
Humedad 76%
Presión 1024 hPa
Visibilidad 10 km o más
Cielo cubierto a una altura de 4700 ft

METAR: LFMV 240130Z AUTO VRB01KT 9999 OVC047 10/06 Q1024

Hora: 02:50 (01:50 UTC)

Pronóstico

El informe se hizo hace 11 horas y 50 minutos, a las 14:00 UTC
Pronóstico válido del 23 a las 15 UTC al 24 a las 15 UTC
Viento 10 kt del sureste
Visibilidad 10 km o más
sin nubes por debajo de 1500 m y sin presencia de cumulonimbus.
Temporalmente
del 24 a las 01 UTC al 24 a las 15 UTC
Viento 4 kt con dirección variable
Cielo nuboso a una altura de 2000 ft
lluvia

TAF: LFMV 231400Z 2315/2415 13010KT CAVOK TEMPO 2401/2415 VRB04KT RA BKN020

Observaciones y pronósticos meteorológicos de más de 4000 aeropuertos (mensajes METAR y TAF).

Los puntos amarillos y rojos representan las estaciones disponibles.

Ponga el ratón en el punto deseado para ver el nombre de la estación.

Haga clic para ver las observaciones y los pronósticos meteorológicos.

Para cambiar el mapa : haga clic en los botones verdes con una cruz de color negro para hacer un zoom, en el botón verde con un guión para alejar o en las flechas verdes para mapas adyacentes.


METAR-TAF: